Time;durP1;ratioP1;P1;durP2;ratioP2;P2;SDS_P1;SDS_P2;PMS_P1;PMS_P2;Temp;Humidity;BMP_temperature;BMP_pressure;BME280_temperature;BME280_humidity;BME280_pressure;Samples;Min_cycle;Max_cycle;Signal;HPM_P1;HPM_P2
2022/03/10 00:00:44;;;;;;;7.47;3.55;;;20.00;43.30;;;;;;4992284;28;20481;-56
2022/03/10 00:03:09;;;;;;;5.07;3.50;;;20.00;43.30;;;;;;4992632;28;20145;-56
2022/03/10 00:05:35;;;;;;;4.47;3.15;;;20.00;43.30;;;;;;4992883;28;20121;-56
2022/03/10 00:08:00;;;;;;;6.45;3.65;;;20.00;43.20;;;;;;4991136;28;20138;-56
2022/03/10 00:10:26;;;;;;;6.70;3.65;;;20.00;43.20;;;;;;4992468;28;20053;-56
2022/03/10 00:12:52;;;;;;;7.03;3.38;;;20.00;43.20;;;;;;4992694;28;20081;-55
2022/03/10 00:15:22;;;;;;;5.22;3.67;;;19.90;43.10;;;;;;4990585;28;20478;-56
2022/03/10 00:17:48;;;;;;;5.07;3.50;;;19.90;43.00;;;;;;4996360;28;20142;-56
2022/03/10 00:20:13;;;;;;;6.30;3.50;;;19.90;43.00;;;;;;4996174;28;20173;-56
2022/03/10 00:22:44;;;;;;;5.55;3.58;;;19.90;42.90;;;;;;4996063;28;20042;-56
2022/03/10 00:25:09;;;;;;;5.53;3.15;;;19.90;42.90;;;;;;4996111;28;20049;-56
2022/03/10 00:27:35;;;;;;;5.88;3.47;;;19.80;42.90;;;;;;4995499;28;20050;-56
2022/03/10 00:30:00;;;;;;;6.38;3.72;;;19.90;42.90;;;;;;4996549;28;20120;-56
2022/03/10 00:32:26;;;;;;;5.93;3.80;;;19.90;42.90;;;;;;4996231;28;20432;-56
2022/03/10 00:34:51;;;;;;;6.53;3.50;;;19.90;42.90;;;;;;4995309;28;20831;-56
2022/03/10 00:37:17;;;;;;;7.68;3.83;;;19.90;42.80;;;;;;4996025;28;20081;-56
2022/03/10 00:39:42;;;;;;;5.82;3.42;;;19.80;42.70;;;;;;4995996;28;20052;-56
2022/03/10 00:42:08;;;;;;;6.05;3.35;;;19.80;42.60;;;;;;4995394;28;20437;-56
2022/03/10 00:44:34;;;;;;;6.00;3.25;;;19.80;42.70;;;;;;4996403;28;20478;-56
2022/03/10 00:46:59;;;;;;;5.47;3.40;;;19.70;42.60;;;;;;4996110;28;20555;-56
2022/03/10 00:49:25;;;;;;;6.05;3.92;;;19.80;42.60;;;;;;4995031;28;20470;-56
2022/03/10 00:51:50;;;;;;;5.38;3.05;;;19.80;42.60;;;;;;4996335;28;20077;-56
2022/03/10 00:54:16;;;;;;;5.55;3.63;;;19.80;42.60;;;;;;4995666;28;20046;-57
2022/03/10 00:56:41;;;;;;;5.93;3.70;;;19.80;42.60;;;;;;4995424;28;20049;-56
2022/03/10 00:59:07;;;;;;;5.15;3.05;;;19.70;42.50;;;;;;4995780;28;20180;-56
2022/03/10 01:01:32;;;;;;;5.80;4.00;;;19.70;42.40;;;;;;4996041;28;20038;-57
2022/03/10 01:03:58;;;;;;;5.32;3.53;;;19.70;42.40;;;;;;4994091;28;20043;-56
2022/03/10 01:06:23;;;;;;;6.03;3.58;;;19.70;42.40;;;;;;4995458;28;20129;-56
2022/03/10 01:08:49;;;;;;;5.00;3.47;;;19.70;42.40;;;;;;4995795;28;20058;-56
2022/03/10 01:11:15;;;;;;;6.10;3.75;;;19.70;42.40;;;;;;4994804;28;20128;-56
2022/03/10 01:13:40;;;;;;;5.10;3.38;;;19.70;42.30;;;;;;4995537;28;20192;-56
2022/03/10 01:16:06;;;;;;;7.25;3.50;;;19.70;42.30;;;;;;4995487;28;20050;-56
2022/03/10 01:18:32;;;;;;;6.30;3.67;;;19.60;42.30;;;;;;4994622;28;20047;-56
2022/03/10 01:20:57;;;;;;;6.15;3.50;;;19.60;42.30;;;;;;4995626;28;20058;-56
2022/03/10 01:23:23;;;;;;;5.22;3.80;;;19.60;42.20;;;;;;4995264;28;20047;-56
2022/03/10 01:25:48;;;;;;;5.38;3.70;;;19.60;42.10;;;;;;4994663;28;20576;-56
2022/03/10 01:28:14;;;;;;;5.57;3.70;;;19.60;42.20;;;;;;4994283;28;20046;-56
2022/03/10 01:30:39;;;;;;;5.78;3.78;;;19.60;42.20;;;;;;4995353;28;20073;-56
2022/03/10 01:33:05;;;;;;;6.55;4.22;;;19.60;42.10;;;;;;4994160;28;20050;-56
2022/03/10 01:35:30;;;;;;;5.70;3.47;;;19.60;42.10;;;;;;4995594;28;20047;-56
2022/03/10 01:37:56;;;;;;;5.47;3.65;;;19.60;42.10;;;;;;4994319;28;20138;-56
2022/03/10 01:40:21;;;;;;;4.95;3.40;;;19.60;42.10;;;;;;4995072;28;20406;-56
2022/03/10 01:42:47;;;;;;;6.53;3.45;;;19.50;42.00;;;;;;4995135;28;20110;-56
2022/03/10 01:45:13;;;;;;;4.93;3.40;;;19.50;42.00;;;;;;4974760;28;20039;-57
2022/03/10 01:47:39;;;;;;;5.47;3.50;;;19.50;42.00;;;;;;4975691;28;20050;-56
2022/03/10 01:50:05;;;;;;;5.72;3.65;;;19.50;42.00;;;;;;4975306;28;20039;-56
2022/03/10 01:52:31;;;;;;;5.95;3.53;;;19.50;42.00;;;;;;4973395;28;20049;-56
2022/03/10 01:54:57;;;;;;;5.13;3.33;;;19.50;42.00;;;;;;4975641;28;20035;-56
2022/03/10 01:57:23;;;;;;;6.30;3.60;;;19.50;42.00;;;;;;4973750;28;20049;-56
2022/03/10 01:59:49;;;;;;;6.85;3.33;;;19.50;42.00;;;;;;4973669;28;20039;-56
2022/03/10 02:02:15;;;;;;;4.55;3.25;;;19.50;41.90;;;;;;4975087;28;20053;-55
2022/03/10 02:04:41;;;;;;;4.88;3.60;;;19.50;41.90;;;;;;4975166;28;20054;-56
2022/03/10 02:07:08;;;;;;;6.35;3.60;;;19.60;41.90;;;;;;4974308;28;20126;-56
2022/03/10 02:12:18;;;;;;;6.45;4.03;;;19.60;41.80;;;;;;4974994;28;20043;-56
2022/03/10 02:17:27;;;;;;;6.78;3.45;;;19.60;41.80;;;;;;4974678;28;20454;-56
2022/03/10 02:19:57;;;;;;;6.20;3.78;;;19.60;41.70;;;;;;4974675;28;20490;-56
2022/03/10 02:22:23;;;;;;;5.15;3.10;;;19.60;41.60;;;;;;4973959;28;20058;-56
2022/03/10 02:24:50;;;;;;;5.80;3.78;;;19.60;41.70;;;;;;4973691;28;20043;-56
2022/03/10 02:27:22;;;;;;;5.18;3.40;;;19.60;41.60;;;;;;4973815;28;20061;-56
2022/03/10 02:29:49;;;;;;;5.00;3.50;;;19.70;41.60;;;;;;4974958;28;20054;-56
2022/03/10 02:32:14;;;;;;;6.78;3.45;;;19.60;41.60;;;;;;4974571;28;20126;-56
2022/03/10 02:34:40;;;;;;;4.82;3.17;;;19.70;41.60;;;;;;4974128;28;20122;-56
2022/03/10 02:37:06;;;;;;;5.93;2.97;;;19.70;41.50;;;;;;4974305;28;20594;-56
2022/03/10 02:39:32;;;;;;;5.00;3.42;;;19.70;41.50;;;;;;4974373;28;20061;-56
2022/03/10 02:41:57;;;;;;;6.03;3.65;;;19.70;41.30;;;;;;4974097;28;20058;-56
2022/03/10 02:44:23;;;;;;;4.68;3.13;;;19.70;41.30;;;;;;4974109;28;20058;-56
2022/03/10 02:46:48;;;;;;;5.28;3.47;;;19.70;41.30;;;;;;4974443;28;20047;-56
2022/03/10 02:49:14;;;;;;;5.82;3.63;;;19.70;41.30;;;;;;4973638;28;20043;-56
2022/03/10 02:51:39;;;;;;;4.68;3.22;;;19.80;41.30;;;;;;4974537;28;20051;-56
2022/03/10 02:54:05;;;;;;;6.25;3.92;;;19.70;41.30;;;;;;4974119;28;20042;-56
2022/03/10 02:56:30;;;;;;;5.72;3.35;;;19.80;41.30;;;;;;4973588;28;20398;-56
2022/03/10 02:58:56;;;;;;;4.57;3.10;;;19.80;41.90;;;;;;4974477;28;20050;-56
2022/03/10 03:01:21;;;;;;;4.72;3.40;;;19.70;41.20;;;;;;4979967;28;20113;-56
2022/03/10 03:03:47;;;;;;;4.57;3.28;;;19.80;41.20;;;;;;4991942;28;20118;-56
2022/03/10 03:06:12;;;;;;;5.05;3.30;;;19.70;41.20;;;;;;4992605;28;20050;-56
2022/03/10 03:08:39;;;;;;;5.32;3.20;;;19.80;41.20;;;;;;4993774;28;20054;-56
2022/03/10 03:11:05;;;;;;;4.20;2.95;;;19.80;41.20;;;;;;4992646;28;20064;-56
2022/03/10 03:13:30;;;;;;;4.80;3.22;;;19.80;41.20;;;;;;4993526;28;20076;-56
2022/03/10 03:15:56;;;;;;;5.63;3.17;;;19.80;41.20;;;;;;4993327;28;20046;-56
2022/03/10 03:18:21;;;;;;;4.63;3.00;;;19.80;41.20;;;;;;4992541;28;20569;-56
2022/03/10 03:20:47;;;;;;;4.80;2.88;;;19.80;41.20;;;;;;4993536;28;20550;-56
2022/03/10 03:23:12;;;;;;;5.43;3.13;;;19.90;41.30;;;;;;4993153;28;20104;-56
2022/03/10 03:25:38;;;;;;;5.63;3.38;;;19.80;41.20;;;;;;4992608;28;20046;-56
2022/03/10 03:28:04;;;;;;;4.80;3.10;;;19.80;41.20;;;;;;4993175;28;20053;-56
2022/03/10 03:30:29;;;;;;;4.63;3.25;;;19.80;41.20;;;;;;4992764;28;20389;-56
2022/03/10 03:32:55;;;;;;;5.13;3.40;;;19.90;41.20;;;;;;4993601;28;20057;-56
2022/03/10 03:35:20;;;;;;;4.95;3.17;;;19.90;41.20;;;;;;4992985;28;20443;-58
2022/03/10 03:37:46;;;;;;;4.85;3.35;;;19.90;41.20;;;;;;4992101;28;20560;-58
2022/03/10 03:40:11;;;;;;;4.70;2.95;;;19.90;41.20;;;;;;4993193;28;20502;-58
2022/03/10 03:42:37;;;;;;;4.43;3.10;;;19.80;41.20;;;;;;4993377;28;20046;-58
2022/03/10 03:45:04;;;;;;;4.90;3.10;;;19.80;41.20;;;;;;4992409;28;20092;-58
2022/03/10 03:47:29;;;;;;;4.85;3.08;;;19.90;41.20;;;;;;4993281;28;20050;-58
2022/03/10 03:49:55;;;;;;;5.78;3.40;;;19.90;41.20;;;;;;4993170;28;20122;-58
2022/03/10 03:52:20;;;;;;;4.18;2.95;;;19.90;41.90;;;;;;4995273;28;20188;-58
2022/03/10 03:54:46;;;;;;;4.47;2.83;;;19.90;41.20;;;;;;4996024;28;20043;-56
2022/03/10 03:57:11;;;;;;;4.50;2.97;;;19.90;41.20;;;;;;4997025;28;20046;-56
2022/03/10 03:59:37;;;;;;;4.18;2.97;;;19.90;41.20;;;;;;4996400;28;20492;-56
2022/03/10 04:02:03;;;;;;;5.15;3.00;;;19.90;41.20;;;;;;4996645;28;20050;-56
2022/03/10 04:04:29;;;;;;;4.50;2.80;;;19.90;41.20;;;;;;4997112;28;20047;-57
2022/03/10 04:06:55;;;;;;;6.75;3.05;;;19.90;41.20;;;;;;4995966;28;20096;-56
2022/03/10 04:09:21;;;;;;;4.60;2.72;;;19.90;41.10;;;;;;4996593;28;20058;-56
2022/03/10 04:11:46;;;;;;;5.28;2.97;;;19.90;41.90;;;;;;4997046;28;20073;-56
2022/03/10 04:14:12;;;;;;;5.68;3.10;;;20.00;41.20;;;;;;4995542;28;20141;-56
2022/03/10 04:16:38;;;;;;;4.50;2.60;;;19.90;41.20;;;;;;4996933;28;20039;-56
2022/03/10 04:19:05;;;;;;;4.05;2.80;;;19.90;41.10;;;;;;4996604;28;20108;-55
2022/03/10 04:21:31;;;;;;;4.55;2.80;;;20.00;41.20;;;;;;4995981;28;20046;-56
2022/03/10 04:23:56;;;;;;;4.07;2.95;;;20.00;41.20;;;;;;4996478;28;20077;-56
2022/03/10 04:26:22;;;;;;;3.83;2.85;;;19.90;41.10;;;;;;4996352;28;20081;-56
2022/03/10 04:28:47;;;;;;;5.28;3.20;;;20.00;41.20;;;;;;4995516;28;20146;-56
2022/03/10 04:31:13;;;;;;;5.30;3.13;;;20.00;41.10;;;;;;4996055;28;20401;-56
2022/03/10 04:33:39;;;;;;;5.78;3.10;;;20.00;41.10;;;;;;4996203;28;20496;-56
2022/03/10 04:36:04;;;;;;;4.10;2.83;;;20.00;41.10;;;;;;4995955;28;20049;-56
2022/03/10 04:38:30;;;;;;;3.67;2.63;;;20.00;41.00;;;;;;4996168;28;20124;-56
2022/03/10 04:40:55;;;;;;;4.13;2.70;;;20.00;41.10;;;;;;4995367;28;20042;-56
2022/03/10 04:43:21;;;;;;;4.30;2.90;;;20.00;41.00;;;;;;4996031;28;20085;-56
2022/03/10 04:45:46;;;;;;;4.25;3.20;;;20.00;41.00;;;;;;4996409;28;20049;-56
2022/03/10 04:48:12;;;;;;;4.72;2.97;;;20.00;41.00;;;;;;4995236;28;20050;-56
2022/03/10 04:50:38;;;;;;;5.40;3.00;;;20.00;41.00;;;;;;4996240;28;20073;-56
2022/03/10 04:53:04;;;;;;;5.10;2.60;;;20.00;41.00;;;;;;4995888;28;20045;-58
2022/03/10 04:55:30;;;;;;;4.03;2.88;;;20.00;40.90;;;;;;4995529;28;20042;-56
2022/03/10 04:57:56;;;;;;;4.50;3.10;;;20.00;40.90;;;;;;4996288;28;20092;-56
2022/03/10 05:00:22;;;;;;;3.97;2.45;;;20.00;40.90;;;;;;4995380;28;20069;-56
2022/03/10 05:02:47;;;;;;;4.93;3.00;;;20.00;40.90;;;;;;4975440;28;20517;-56
2022/03/10 05:05:13;;;;;;;4.32;2.67;;;20.00;40.90;;;;;;4994724;28;20046;-56
2022/03/10 05:07:39;;;;;;;4.32;2.95;;;20.00;40.90;;;;;;4995386;28;20478;-56
2022/03/10 05:10:06;;;;;;;5.05;3.03;;;20.00;40.90;;;;;;4994436;28;20072;-57
2022/03/10 05:12:31;;;;;;;4.65;2.97;;;20.00;40.90;;;;;;4995694;28;20046;-56
2022/03/10 05:14:57;;;;;;;4.38;2.65;;;20.10;40.90;;;;;;4995770;28;20505;-57
2022/03/10 05:17:23;;;;;;;4.70;2.90;;;20.00;40.90;;;;;;4994509;28;20050;-56
2022/03/10 05:19:51;;;;;;;4.65;2.80;;;20.10;40.90;;;;;;4995104;28;20485;-56
2022/03/10 05:22:17;;;;;;;5.75;2.83;;;20.10;40.90;;;;;;4995561;28;20086;-56
2022/03/10 05:24:42;;;;;;;4.07;2.75;;;20.00;40.80;;;;;;4994927;28;20073;-56
2022/03/10 05:27:08;;;;;;;4.72;3.03;;;20.00;40.80;;;;;;4995212;28;20054;-57
2022/03/10 05:29:33;;;;;;;4.68;2.72;;;20.10;40.90;;;;;;4995594;28;20045;-56
2022/03/10 05:31:59;;;;;;;5.60;3.03;;;20.10;40.90;;;;;;4994724;28;20101;-56
2022/03/10 05:34:24;;;;;;;4.40;2.55;;;20.10;40.80;;;;;;4995075;28;20042;-56
2022/03/10 05:36:50;;;;;;;4.28;2.97;;;20.10;40.90;;;;;;4995347;28;20054;-56
2022/03/10 05:39:15;;;;;;;4.57;2.67;;;20.10;40.80;;;;;;4993717;28;20141;-57
2022/03/10 05:41:41;;;;;;;3.88;2.50;;;20.10;40.80;;;;;;4995166;28;20054;-56
2022/03/10 05:44:06;;;;;;;4.00;2.65;;;20.10;40.80;;;;;;4993997;28;20042;-56
2022/03/10 05:46:32;;;;;;;4.45;2.85;;;20.10;40.80;;;;;;4995302;28;20046;-56
2022/03/10 05:48:57;;;;;;;3.72;2.72;;;20.10;41.40;;;;;;4995213;28;20053;-56
2022/03/10 05:51:23;;;;;;;4.53;2.90;;;20.10;40.70;;;;;;4993722;28;20461;-56
2022/03/10 05:53:49;;;;;;;4.30;3.00;;;20.10;40.70;;;;;;4995174;28;20035;-56
2022/03/10 05:56:15;;;;;;;3.83;2.72;;;20.10;40.70;;;;;;4994656;28;20042;-56
2022/03/10 05:58:41;;;;;;;3.90;2.55;;;20.10;40.60;;;;;;4994286;28;20047;-56
2022/03/10 06:01:07;;;;;;;4.32;2.67;;;20.10;40.70;;;;;;4994740;28;20406;-56
2022/03/10 06:03:33;;;;;;;4.07;2.70;;;20.10;40.70;;;;;;4994864;28;20052;-56
2022/03/10 06:05:58;;;;;;;4.80;2.88;;;20.10;40.70;;;;;;5002186;28;20393;-56
2022/03/10 06:08:25;;;;;;;4.70;3.10;;;20.10;40.70;;;;;;5013996;28;20045;-56
2022/03/10 06:10:51;;;;;;;3.75;2.45;;;20.10;40.70;;;;;;5014083;28;20060;-56
2022/03/10 06:13:16;;;;;;;5.15;3.08;;;20.20;40.70;;;;;;5013019;28;20121;-56
2022/03/10 06:15:41;;;;;;;4.15;2.47;;;20.10;40.60;;;;;;5012513;28;20065;-56
2022/03/10 06:18:08;;;;;;;4.38;3.00;;;20.20;40.80;;;;;;5013907;28;20085;-56
2022/03/10 06:20:34;;;;;;;5.95;3.35;;;20.20;40.70;;;;;;5011213;28;20073;-56
2022/03/10 06:23:00;;;;;;;4.25;2.60;;;20.20;40.50;;;;;;5012543;28;20092;-57
2022/03/10 06:25:25;;;;;;;5.68;3.05;;;20.20;40.60;;;;;;5012476;28;20044;-56
2022/03/10 06:27:51;;;;;;;4.38;2.90;;;20.10;40.60;;;;;;5013028;28;20049;-56
2022/03/10 06:30:16;;;;;;;4.47;3.00;;;20.20;40.60;;;;;;5013602;28;20128;-56
2022/03/10 06:32:42;;;;;;;4.75;2.75;;;20.20;40.60;;;;;;5014015;28;20133;-56
2022/03/10 06:35:08;;;;;;;4.35;2.90;;;20.20;40.70;;;;;;5011190;28;20124;-57
2022/03/10 06:37:33;;;;;;;5.20;2.90;;;20.20;40.70;;;;;;5013558;28;20100;-57
2022/03/10 06:39:59;;;;;;;4.85;2.65;;;20.20;40.80;;;;;;5013919;28;20136;-57
2022/03/10 06:42:24;;;;;;;5.07;2.83;;;20.20;40.80;;;;;;5012350;28;20128;-57
2022/03/10 06:44:50;;;;;;;4.53;2.65;;;20.20;40.90;;;;;;5013769;28;20068;-57
2022/03/10 06:47:15;;;;;;;4.32;3.03;;;20.20;41.00;;;;;;5013039;28;20038;-57
2022/03/10 06:49:41;;;;;;;4.45;2.88;;;20.20;41.10;;;;;;5012797;28;20054;-57
2022/03/10 06:52:08;;;;;;;3.90;2.80;;;20.20;41.10;;;;;;5013328;28;20176;-58
2022/03/10 06:54:34;;;;;;;7.00;2.72;;;20.20;41.20;;;;;;5012735;28;20477;-57
2022/03/10 06:56:59;;;;;;;4.47;2.88;;;20.20;41.30;;;;;;5013435;28;20057;-57
2022/03/10 06:59:25;;;;;;;4.82;2.83;;;20.20;41.50;;;;;;5013204;28;20042;-56
2022/03/10 07:01:50;;;;;;;4.82;2.50;;;20.30;41.70;;;;;;5012666;28;20057;-56
2022/03/10 07:04:16;;;;;;;4.10;2.53;;;20.30;42.00;;;;;;5012964;28;20046;-56
2022/03/10 07:06:42;;;;;;;5.00;2.88;;;20.30;42.00;;;;;;5013110;28;20121;-56
2022/03/10 07:09:07;;;;;;;3.97;2.47;;;20.30;42.10;;;;;;5012129;28;20042;-56
2022/03/10 07:11:33;;;;;;;4.32;2.58;;;20.30;42.20;;;;;;5013432;28;20041;-59
2022/03/10 07:13:59;;;;;;;6.18;3.25;;;20.30;42.40;;;;;;5013277;28;20489;-57
2022/03/10 07:16:24;;;;;;;5.53;2.40;;;20.30;42.40;;;;;;5012279;28;20076;-57
2022/03/10 07:18:53;;;;;;;3.85;2.58;;;20.40;42.50;;;;;;5012949;28;20042;-57
2022/03/10 07:21:22;;;;;;;4.93;2.85;;;20.40;42.60;;;;;;5012524;28;20401;-58
2022/03/10 07:23:48;;;;;;;5.63;2.30;;;20.40;42.70;;;;;;5012001;28;20056;-57
2022/03/10 07:26:13;;;;;;;5.03;3.03;;;20.40;42.80;;;;;;5011917;28;20046;-57
2022/03/10 07:28:39;;;;;;;4.50;2.85;;;20.40;43.00;;;;;;5013159;28;20124;-58
2022/03/10 07:31:05;;;;;;;4.57;2.42;;;20.50;43.00;;;;;;5012118;28;20121;-58
2022/03/10 07:33:30;;;;;;;3.80;2.35;;;20.50;43.10;;;;;;5013114;28;20478;-57
2022/03/10 07:35:56;;;;;;;5.35;2.78;;;20.50;43.20;;;;;;5012694;28;20105;-57
2022/03/10 07:38:21;;;;;;;4.97;2.42;;;20.50;43.10;;;;;;5011318;28;20124;-57
2022/03/10 07:40:47;;;;;;;4.32;2.55;;;20.50;43.10;;;;;;5012814;28;20034;-57
2022/03/10 07:43:12;;;;;;;4.30;2.67;;;20.50;43.90;;;;;;5012668;28;20061;-57
2022/03/10 07:45:38;;;;;;;4.82;2.70;;;20.50;43.10;;;;;;5012148;28;20038;-57
2022/03/10 07:48:04;;;;;;;5.70;2.80;;;20.50;43.20;;;;;;5012611;28;20042;-57
2022/03/10 07:50:29;;;;;;;3.75;2.50;;;20.60;43.20;;;;;;5012530;28;20045;-57
2022/03/10 07:52:55;;;;;;;4.43;2.55;;;20.60;43.30;;;;;;5011477;28;20038;-57
2022/03/10 07:55:21;;;;;;;4.32;2.60;;;20.60;43.30;;;;;;5012134;28;20050;-57
2022/03/10 07:57:46;;;;;;;3.92;2.47;;;20.60;43.30;;;;;;5011888;28;20497;-57
2022/03/10 08:00:12;;;;;;;4.68;2.50;;;20.60;43.30;;;;;;5012248;28;20132;-57
2022/03/10 08:02:38;;;;;;;5.22;2.67;;;20.70;44.10;;;;;;5012971;28;20041;-57
2022/03/10 08:05:04;;;;;;;4.30;2.38;;;20.70;43.40;;;;;;5011620;28;20056;-57
2022/03/10 08:07:32;;;;;;;4.75;2.63;;;20.70;43.40;;;;;;5012445;28;20050;-57
2022/03/10 08:09:59;;;;;;;4.75;2.90;;;20.70;43.40;;;;;;5012653;28;20062;-57
2022/03/10 08:12:29;;;;;;;5.15;2.70;;;20.70;43.40;;;;;;5010205;28;20046;-57
2022/03/10 08:14:55;;;;;;;6.03;2.80;;;20.80;43.50;;;;;;5012821;28;20084;-57
2022/03/10 08:17:20;;;;;;;4.10;2.53;;;20.80;43.50;;;;;;5012376;28;20493;-57
2022/03/10 08:19:46;;;;;;;4.13;2.63;;;20.80;43.30;;;;;;5002611;28;20038;-57
2022/03/10 08:22:11;;;;;;;5.35;2.95;;;20.80;43.20;;;;;;4973219;28;20135;-58
2022/03/10 08:24:38;;;;;;;6.68;3.00;;;20.80;43.20;;;;;;4972213;28;20134;-57
2022/03/10 08:27:04;;;;;;;4.00;2.63;;;20.90;43.30;;;;;;4972421;28;20050;-58
2022/03/10 08:29:30;;;;;;;5.72;2.90;;;20.90;43.30;;;;;;4973490;28;20082;-58
2022/03/10 08:31:55;;;;;;;4.97;2.55;;;20.90;43.30;;;;;;4973158;28;20082;-58
2022/03/10 08:34:21;;;;;;;5.07;2.90;;;20.90;43.30;;;;;;4972376;28;20053;-57
2022/03/10 08:36:46;;;;;;;3.67;2.50;;;21.00;43.40;;;;;;4973429;28;20098;-57
2022/03/10 08:39:13;;;;;;;4.47;2.45;;;21.00;43.40;;;;;;4976238;28;20055;-58
2022/03/10 08:41:38;;;;;;;4.72;2.70;;;21.00;43.40;;;;;;4976013;28;20479;-58
2022/03/10 08:44:04;;;;;;;4.15;2.70;;;21.00;43.30;;;;;;4988009;28;20046;-58
2022/03/10 08:46:29;;;;;;;4.57;2.70;;;21.00;43.40;;;;;;4996241;28;20049;-57
2022/03/10 08:48:55;;;;;;;4.70;2.50;;;21.10;43.40;;;;;;4995279;28;20054;-58
2022/03/10 08:51:20;;;;;;;6.15;2.67;;;21.00;43.20;;;;;;4994549;28;20146;-58
2022/03/10 08:53:46;;;;;;;3.78;2.60;;;21.10;43.20;;;;;;4996219;28;20474;-58
2022/03/10 08:56:11;;;;;;;4.55;2.80;;;21.10;43.20;;;;;;4995090;28;20053;-58
2022/03/10 08:58:37;;;;;;;6.20;3.00;;;21.10;43.10;;;;;;4996093;28;20042;-57
2022/03/10 09:01:02;;;;;;;5.85;3.22;;;21.10;43.00;;;;;;4995068;28;20031;-57
2022/03/10 09:03:28;;;;;;;6.88;3.50;;;21.10;43.00;;;;;;4995731;28;20414;-57
2022/03/10 09:05:54;;;;;;;6.60;3.40;;;21.10;43.00;;;;;;4995874;28;20049;-57
2022/03/10 09:08:20;;;;;;;7.20;3.75;;;21.10;42.90;;;;;;4994755;28;20042;-58
2022/03/10 09:10:46;;;;;;;6.28;4.05;;;21.10;42.90;;;;;;4995867;28;20053;-58
2022/03/10 09:13:11;;;;;;;7.68;3.80;;;21.10;42.90;;;;;;4995533;28;20047;-57
2022/03/10 09:15:37;;;;;;;6.40;3.40;;;21.10;43.00;;;;;;4994820;28;20046;-57
2022/03/10 09:18:03;;;;;;;9.90;4.00;;;21.10;43.10;;;;;;4995704;28;20034;-56
2022/03/10 09:20:29;;;;;;;6.60;3.80;;;21.10;42.90;;;;;;4995487;28;20042;-57
2022/03/10 09:22:55;;;;;;;6.47;3.60;;;21.10;42.90;;;;;;4995085;28;20053;-56
2022/03/10 09:25:20;;;;;;;6.72;3.53;;;21.20;42.90;;;;;;4995277;28;20490;-57
2022/03/10 09:27:47;;;;;;;6.45;3.45;;;21.20;42.90;;;;;;4995192;28;20404;-57
2022/03/10 09:30:12;;;;;;;8.00;3.47;;;21.20;42.90;;;;;;4994393;28;20470;-57
2022/03/10 09:32:39;;;;;;;5.63;3.53;;;21.10;42.90;;;;;;4995189;28;20499;-56
2022/03/10 09:35:06;;;;;;;4.90;3.40;;;21.20;42.90;;;;;;4994699;28;20121;-57
2022/03/10 09:37:31;;;;;;;6.68;3.17;;;21.20;42.80;;;;;;4994619;28;20133;-58
2022/03/10 09:39:57;;;;;;;5.70;3.60;;;21.20;42.90;;;;;;4994923;28;20472;-58
2022/03/10 09:42:27;;;;;;;5.13;3.35;;;21.20;42.90;;;;;;4995025;28;20042;-57
2022/03/10 09:44:54;;;;;;;5.93;3.25;;;21.20;42.90;;;;;;4993144;28;20413;-58
2022/03/10 09:47:19;;;;;;;5.90;3.35;;;21.20;42.90;;;;;;4961556;28;20057;-58
2022/03/10 09:49:45;;;;;;;6.10;3.55;;;21.20;42.90;;;;;;4977163;28;20047;-58
2022/03/10 09:52:12;;;;;;;5.75;3.35;;;21.20;42.80;;;;;;4992505;28;20081;-58
2022/03/10 09:54:38;;;;;;;6.47;3.38;;;21.10;42.70;;;;;;4993990;28;20046;-58
2022/03/10 09:57:03;;;;;;;6.03;3.22;;;21.20;42.80;;;;;;4994844;28;20043;-58
2022/03/10 09:59:30;;;;;;;7.13;3.33;;;21.20;42.80;;;;;;4992663;28;20042;-58
2022/03/10 10:01:56;;;;;;;5.47;2.97;;;21.20;42.70;;;;;;4994924;28;20123;-58
2022/03/10 10:04:22;;;;;;;6.13;3.28;;;21.10;42.70;;;;;;4995013;28;20461;-58
2022/03/10 10:07:00;;;;;;;7.43;3.45;;;21.10;42.50;;;;;;4995247;28;20049;-57
2022/03/10 10:09:38;;;;;;;6.15;3.30;;;21.10;42.30;;;;;;5007542;28;20099;-58
2022/03/10 10:12:08;;;;;;;6.50;3.30;;;21.10;42.40;;;;;;5005438;28;20050;-59
2022/03/10 10:14:38;;;;;;;6.72;3.85;;;21.10;42.50;;;;;;4994146;28;20085;-59
2022/03/10 10:17:04;;;;;;;5.70;3.22;;;21.10;42.60;;;;;;4991147;28;20126;-59
2022/03/10 10:19:33;;;;;;;5.88;3.42;;;21.10;42.70;;;;;;4993194;28;20121;-60
2022/03/10 10:22:28;;;;;;;5.15;3.45;;;21.10;42.80;;;;;;4993878;28;20042;-60
2022/03/10 10:24:58;;;;;;;5.20;3.10;;;21.10;43.00;;;;;;4981524;28;20078;-59
2022/03/10 10:27:33;;;;;;;6.00;3.20;;;21.10;43.10;;;;;;4992634;28;20573;-59
2022/03/10 10:30:04;;;;;;;5.38;3.03;;;21.10;43.20;;;;;;4993994;28;20050;-59
2022/03/10 10:32:31;;;;;;;7.40;3.53;;;21.10;43.40;;;;;;4993260;28;20042;-60
2022/03/10 10:35:07;;;;;;;5.88;3.17;;;21.10;43.40;;;;;;4993898;28;20038;-59
2022/03/10 10:37:33;;;;;;;5.38;3.00;;;21.10;43.50;;;;;;4990646;28;20125;-60
2022/03/10 10:39:58;;;;;;;6.00;3.33;;;21.10;43.50;;;;;;4992476;28;20130;-59
2022/03/10 10:42:35;;;;;;;5.75;3.33;;;21.00;44.10;;;;;;4993403;28;20041;-60
2022/03/10 10:45:00;;;;;;;5.75;3.35;;;21.00;43.60;;;;;;4989740;28;20514;-60
2022/03/10 10:47:27;;;;;;;4.60;2.75;;;21.00;43.70;;;;;;4991704;28;20080;-59
2022/03/10 10:50:01;;;;;;;5.18;2.85;;;21.00;43.70;;;;;;4990702;28;20065;-59
2022/03/10 10:52:36;;;;;;;5.50;3.08;;;21.00;43.70;;;;;;4992401;28;20077;-59
2022/03/10 10:55:06;;;;;;;5.82;2.92;;;21.00;43.90;;;;;;4992140;28;20050;-59
2022/03/10 10:57:34;;;;;;;6.10;2.90;;;21.00;44.00;;;;;;4993536;28;20100;-60
2022/03/10 11:00:18;;;;;;;;;;;21.00;44.00;;;;;;4994029;28;20054;-59
2022/03/10 11:02:43;;;;;;;6.88;3.10;;;21.00;44.00;;;;;;4992632;28;19918;-59
2022/03/10 11:05:12;;;;;;;5.55;2.60;;;21.00;43.90;;;;;;4992243;28;20069;-59
2022/03/10 11:07:39;;;;;;;5.05;2.83;;;21.00;44.00;;;;;;4992963;28;20035;-59
2022/03/10 11:10:07;;;;;;;4.00;2.78;;;21.00;44.00;;;;;;4993318;28;20088;-59
2022/03/10 11:12:34;;;;;;;4.88;2.50;;;20.90;44.00;;;;;;4993586;28;20050;-59
2022/03/10 11:15:00;;;;;;;5.95;3.05;;;21.00;44.10;;;;;;4992706;28;20084;-59
2022/03/10 11:17:26;;;;;;;5.30;3.10;;;20.90;44.00;;;;;;4993381;28;20038;-59
2022/03/10 11:19:54;;;;;;;4.97;2.53;;;20.90;44.10;;;;;;4976355;28;20054;-59
2022/03/10 11:22:39;;;;;;;;;;;21.00;44.20;;;;;;4992677;28;20038;-60
2022/03/10 11:25:30;;;;;;;5.90;3.00;;;20.90;44.10;;;;;;4976425;28;19922;-58
2022/03/10 11:27:58;;;;;;;7.30;3.13;;;20.90;44.20;;;;;;4973091;28;20050;-59
2022/03/10 11:30:28;;;;;;;4.88;2.80;;;20.90;44.20;;;;;;4974758;28;20104;-58
2022/03/10 11:33:06;;;;;;;6.03;3.05;;;20.90;44.30;;;;;;4993360;28;20042;-57
2022/03/10 11:35:59;;;;;;;6.97;2.80;;;20.90;44.30;;;;;;5006982;28;20054;-57
2022/03/10 11:38:50;;;;;;;5.13;2.85;;;20.90;44.30;;;;;;4992707;28;20058;-59
2022/03/10 11:41:15;;;;;;;5.55;3.05;;;20.90;44.40;;;;;;4992804;28;20054;-58
2022/03/10 11:43:41;;;;;;;5.00;2.92;;;20.90;44.40;;;;;;4992477;28;20096;-58
2022/03/10 11:46:22;;;;;;;4.60;2.72;;;20.90;44.10;;;;;;4991567;28;20034;-58
2022/03/10 11:49:14;;;;;;;5.80;3.30;;;20.90;44.10;;;;;;4993295;28;20129;-58
2022/03/10 11:51:46;;;;;;;5.30;2.90;;;20.90;44.10;;;;;;4992341;28;20046;-58
2022/03/10 11:54:15;;;;;;;7.60;3.50;;;20.90;44.10;;;;;;4992663;28;20435;-58
2022/03/10 11:56:43;;;;;;;5.32;3.33;;;20.90;44.10;;;;;;4991736;28;20046;-58
2022/03/10 11:59:22;;;;;;;4.80;2.88;;;21.00;44.00;;;;;;4992549;28;20073;-58
2022/03/10 12:01:48;;;;;;;5.72;3.22;;;21.00;44.00;;;;;;4993135;28;20046;-58
2022/03/10 12:04:17;;;;;;;6.07;3.00;;;21.00;44.00;;;;;;4992268;28;20046;-58
2022/03/10 12:06:58;;;;;;;7.28;3.42;;;21.00;44.00;;;;;;4992934;28;20068;-58
2022/03/10 12:09:34;;;;;;;5.55;3.00;;;21.00;43.90;;;;;;4992641;28;20046;-58
2022/03/10 12:12:18;;;;;;;6.93;3.15;;;21.00;43.90;;;;;;4991600;28;20053;-58
2022/03/10 12:14:44;;;;;;;5.82;3.03;;;21.00;44.10;;;;;;4996783;28;20046;-58
2022/03/10 12:17:52;;;;;;;5.10;2.95;;;21.00;44.10;;;;;;5011482;28;20394;-57
2022/03/10 12:20:21;;;;;;;4.90;2.95;;;21.00;44.10;;;;;;4996084;28;20046;-57
2022/03/10 12:23:06;;;;;;;5.82;3.15;;;21.00;44.10;;;;;;4996570;28;20046;-58
2022/03/10 12:25:43;;;;;;;4.88;3.15;;;21.00;44.10;;;;;;4995087;28;20054;-58
2022/03/10 12:28:10;;;;;;;8.33;2.90;;;21.00;44.10;;;;;;4995422;28;20504;-60
2022/03/10 12:30:42;;;;;;;4.38;2.72;;;21.00;44.20;;;;;;4996587;28;20421;-58
2022/03/10 12:33:07;;;;;;;4.95;2.95;;;21.00;44.10;;;;;;4995725;28;20042;-58
2022/03/10 12:35:35;;;;;;;4.93;3.33;;;21.00;44.00;;;;;;4996370;28;20101;-58
2022/03/10 12:38:01;;;;;;;4.57;2.85;;;21.00;43.80;;;;;;4995043;28;20133;-58
2022/03/10 12:40:28;;;;;;;6.93;3.20;;;21.00;43.70;;;;;;4995347;28;20137;-58
2022/03/10 12:43:04;;;;;;;6.18;3.50;;;21.00;43.60;;;;;;4996452;28;20109;-58
2022/03/10 12:45:30;;;;;;;4.80;2.97;;;21.00;43.50;;;;;;4996208;28;20064;-58
2022/03/10 12:48:20;;;;;;;4.95;2.60;;;21.10;43.60;;;;;;4995608;28;20478;-58
2022/03/10 12:50:46;;;;;;;6.53;2.92;;;21.00;43.50;;;;;;4995196;28;20046;-58
2022/03/10 12:53:11;;;;;;;7.15;3.13;;;21.10;43.60;;;;;;4994057;28;20042;-58